34.0°F
Current conditions from King Hill
Updated every 5 minutes
 
  Friday October 31, 2014

Station Historical Data
Daily Summary for June 2, 2012 Units:  Both    English   Metric
« Previous Day
Next Day »
Daily Weekly Monthly Yearly Custom
  High: Low: Average:
Temperature: 60.9 °F /  16.1 °C 51.2 °F /  10.7 °C 54.9 °F /  12.7 °C
Dew Point: 52.1 °F /  11.2 °C 37.5 °F /  3.1 °C 47.2 °F /  8.4 °C
Humidity: 95% 43% 77%
Wind Speed: 7.0mph /  11.3km/h - 2.2mph /  3.5km/h
Wind Gust: 22.0mph /  35.4km/h - -
Wind- - South
Pressure: 29.88 in /  1011.7 hPa 29.72 in /  1006.3 hPa -
Precipitation: 0.48 in /  12.2 mm    
Historical Graphs
 
 
Tabular Data for June 2, 2012
Time Temperature Dew Point Pressure Wind Wind Speed Wind Gust Humidity Daily Rainfall
00:04 60.4 °F /  15.8 °C 44.2 °F /  6.8 °C 29.87in /  1011.4hPa Calm   11.0mph /  17.7km/h 55% 0.00in /  0mm
00:10 60.4 °F /  15.8 °C 43.7 °F /  6.5 °C 29.88in /  1011.7hPa SSW 1.0mph /  1.6km/h 6.0mph /  9.7km/h 54% 0.00in /  0mm
00:19 60.3 °F /  15.7 °C 43.1 °F /  6.2 °C 29.87in /  1011.4hPa Calm   9.0mph /  14.5km/h 53% 0.00in /  0mm
00:24 60.4 °F /  15.8 °C 43.2 °F /  6.2 °C 29.87in /  1011.4hPa SE 1.0mph /  1.6km/h 7.0mph /  11.3km/h 53% 0.00in /  0mm
00:29 60.4 °F /  15.8 °C 41.7 °F /  5.4 °C 29.87in /  1011.4hPa SSE 2.0mph /  3.2km/h 8.0mph /  12.9km/h 50% 0.00in /  0mm
00:34 60.5 °F /  15.8 °C 42.3 °F /  5.7 °C 29.86in /  1011.1hPa SSE 6.0mph /  9.7km/h 12.0mph /  19.3km/h 51% 0.00in /  0mm
00:39 60.6 °F /  15.9 °C 41.3 °F /  5.2 °C 29.87in /  1011.4hPa SSW 1.0mph /  1.6km/h 17.0mph /  27.4km/h 49% 0.00in /  0mm
00:44 60.6 °F /  15.9 °C 40.8 °F /  4.9 °C 29.86in /  1011.1hPa SSW 5.0mph /  8km/h 17.0mph /  27.4km/h 48% 0.00in /  0mm
00:49 60.6 °F /  15.9 °C 40.8 °F /  4.9 °C 29.86in /  1011.1hPa South 3.0mph /  4.8km/h 15.0mph /  24.1km/h 48% 0.00in /  0mm
00:54 60.8 °F /  16 °C 39.9 °F /  4.4 °C 29.86in /  1011.1hPa SSE 2.0mph /  3.2km/h 17.0mph /  27.4km/h 46% 0.00in /  0mm
00:59 60.8 °F /  16 °C 39.9 °F /  4.4 °C 29.86in /  1011.1hPa SE 3.0mph /  4.8km/h 17.0mph /  27.4km/h 46% 0.00in /  0mm
01:04 60.8 °F /  16 °C 39.9 °F /  4.4 °C 29.85in /  1010.7hPa SSE 1.0mph /  1.6km/h 11.0mph /  17.7km/h 46% 0.00in /  0mm
01:09 60.7 °F /  15.9 °C 39.2 °F /  4 °C 29.85in /  1010.7hPa SSW 3.0mph /  4.8km/h 12.0mph /  19.3km/h 45% 0.00in /  0mm
01:14 60.9 °F /  16.1 °C 38.9 °F /  3.8 °C 29.84in /  1010.4hPa Calm   12.0mph /  19.3km/h 44% 0.00in /  0mm
01:20 60.9 °F /  16.1 °C 39.4 °F /  4.1 °C 29.85in /  1010.7hPa SSE 1.0mph /  1.6km/h 12.0mph /  19.3km/h 45% 0.00in /  0mm
01:29 60.7 °F /  15.9 °C 39.2 °F /  4 °C 29.84in /  1010.4hPa Calm   12.0mph /  19.3km/h 45% 0.00in /  0mm
01:34 60.5 °F /  15.8 °C 39.1 °F /  3.9 °C 29.84in /  1010.4hPa SSW 2.0mph /  3.2km/h 12.0mph /  19.3km/h 45% 0.00in /  0mm
01:39 60.5 °F /  15.8 °C 38.5 °F /  3.6 °C 29.83in /  1010hPa WSW 1.0mph /  1.6km/h 11.0mph /  17.7km/h 44% 0.00in /  0mm
01:44 60.6 °F /  15.9 °C 38.6 °F /  3.7 °C 29.83in /  1010hPa SSW 4.0mph /  6.4km/h 15.0mph /  24.1km/h 44% 0.00in /  0mm
01:49 60.5 °F /  15.8 °C 40.7 °F /  4.8 °C 29.83in /  1010hPa South 1.0mph /  1.6km/h 15.0mph /  24.1km/h 48% 0.00in /  0mm
01:54 60.4 °F /  15.8 °C 39.0 °F /  3.9 °C 29.83in /  1010hPa SSW 3.0mph /  4.8km/h 14.0mph /  22.5km/h 45% 0.00in /  0mm
01:59 60.5 °F /  15.8 °C 39.1 °F /  3.9 °C 29.83in /  1010hPa Calm   14.0mph /  22.5km/h 45% 0.00in /  0mm
02:04 60.4 °F /  15.8 °C 38.4 °F /  3.6 °C 29.83in /  1010hPa ESE 1.0mph /  1.6km/h 12.0mph /  19.3km/h 44% 0.00in /  0mm
02:09 60.2 °F /  15.7 °C 37.6 °F /  3.1 °C 29.82in /  1009.7hPa SW 3.0mph /  4.8km/h 9.0mph /  14.5km/h 43% 0.00in /  0mm
02:14 60.4 °F /  15.8 °C 38.4 °F /  3.6 °C 29.82in /  1009.7hPa SSE 3.0mph /  4.8km/h 11.0mph /  17.7km/h 44% 0.00in /  0mm
02:19 60.4 °F /  15.8 °C 37.8 °F /  3.2 °C 29.81in /  1009.4hPa SW 1.0mph /  1.6km/h 11.0mph /  17.7km/h 43% 0.00in /  0mm
02:24 60.3 °F /  15.7 °C 37.7 °F /  3.2 °C 29.82in /  1009.7hPa West 1.0mph /  1.6km/h 11.0mph /  17.7km/h 43% 0.00in /  0mm
02:29 60.1 °F /  15.6 °C 37.5 °F /  3.1 °C 29.81in /  1009.4hPa SSE 1.0mph /  1.6km/h 15.0mph /  24.1km/h 43% 0.00in /  0mm
02:34 60.3 °F /  15.7 °C 38.9 °F /  3.8 °C 29.81in /  1009.4hPa South 3.0mph /  4.8km/h 16.0mph /  25.7km/h 45% 0.00in /  0mm
02:39 60.3 °F /  15.7 °C 38.3 °F /  3.5 °C 29.81in /  1009.4hPa SW 4.0mph /  6.4km/h 17.0mph /  27.4km/h 44% 0.00in /  0mm
02:44 60.4 °F /  15.8 °C 38.4 °F /  3.6 °C 29.81in /  1009.4hPa SW 2.0mph /  3.2km/h 17.0mph /  27.4km/h 44% 0.00in /  0mm
02:49 60.4 °F /  15.8 °C 39.0 °F /  3.9 °C 29.81in /  1009.4hPa SSE 4.0mph /  6.4km/h 15.0mph /  24.1km/h 45% 0.00in /  0mm
02:54 60.4 °F /  15.8 °C 39.5 °F /  4.2 °C 29.80in /  1009hPa SSE 4.0mph /  6.4km/h 15.0mph /  24.1km/h 46% 0.00in /  0mm
02:59 60.3 °F /  15.7 °C 39.4 °F /  4.1 °C 29.80in /  1009hPa East 1.0mph /  1.6km/h 14.0mph /  22.5km/h 46% 0.00in /  0mm
03:04 60.2 °F /  15.7 °C 38.8 °F /  3.8 °C 29.80in /  1009hPa SSW 2.0mph /  3.2km/h 13.0mph /  20.9km/h 45% 0.00in /  0mm
03:09 60.2 °F /  15.7 °C 39.9 °F /  4.4 °C 29.80in /  1009hPa SSW 3.0mph /  4.8km/h 13.0mph /  20.9km/h 47% 0.00in /  0mm
03:14 60.1 °F /  15.6 °C 39.8 °F /  4.3 °C 29.79in /  1008.7hPa SSE 1.0mph /  1.6km/h 11.0mph /  17.7km/h 47% 0.00in /  0mm
03:19 60.2 °F /  15.7 °C 39.9 °F /  4.4 °C 29.79in /  1008.7hPa SW 2.0mph /  3.2km/h 17.0mph /  27.4km/h 47% 0.00in /  0mm
03:24 60.1 °F /  15.6 °C 39.8 °F /  4.3 °C 29.79in /  1008.7hPa SSE 2.0mph /  3.2km/h 17.0mph /  27.4km/h 47% 0.00in /  0mm
03:29 59.9 °F /  15.5 °C 40.2 °F /  4.6 °C 29.78in /  1008.4hPa SE 7.0mph /  11.3km/h 17.0mph /  27.4km/h 48% 0.00in /  0mm
03:34 59.7 °F /  15.4 °C 40.5 °F /  4.7 °C 29.78in /  1008.4hPa SSE 4.0mph /  6.4km/h 17.0mph /  27.4km/h 49% 0.00in /  0mm
03:39 59.5 °F /  15.3 °C 40.9 °F /  4.9 °C 29.78in /  1008.4hPa SSE 4.0mph /  6.4km/h 18.0mph /  29km/h 50% 0.00in /  0mm
03:44 59.2 °F /  15.1 °C 41.1 °F /  5.1 °C 29.78in /  1008.4hPa South 1.0mph /  1.6km/h 18.0mph /  29km/h 51% 0.00in /  0mm
03:49 59.0 °F /  15 °C 41.4 °F /  5.2 °C 29.77in /  1008hPa Calm   7.0mph /  11.3km/h 52% 0.00in /  0mm
03:54 58.7 °F /  14.8 °C 41.1 °F /  5.1 °C 29.77in /  1008hPa South 3.0mph /  4.8km/h 10.0mph /  16.1km/h 52% 0.00in /  0mm
03:59 58.5 °F /  14.7 °C 40.9 °F /  4.9 °C 29.77in /  1008hPa SSW 2.0mph /  3.2km/h 11.0mph /  17.7km/h 52% 0.00in /  0mm
04:04 58.4 °F /  14.7 °C 41.8 °F /  5.4 °C 29.77in /  1008hPa SSW 1.0mph /  1.6km/h 11.0mph /  17.7km/h 54% 0.00in /  0mm
04:09 58.1 °F /  14.5 °C 42.0 °F /  5.6 °C 29.77in /  1008hPa SE 3.0mph /  4.8km/h 12.0mph /  19.3km/h 55% 0.00in /  0mm
04:14 57.7 °F /  14.3 °C 42.1 °F /  5.6 °C 29.77in /  1008hPa SSE 1.0mph /  1.6km/h 12.0mph /  19.3km/h 56% 0.00in /  0mm
04:19 57.0 °F /  13.9 °C 43.3 °F /  6.3 °C 29.77in /  1008hPa SW 1.0mph /  1.6km/h 10.0mph /  16.1km/h 60% 0.00in /  0mm
04:24 56.4 °F /  13.6 °C 43.1 °F /  6.2 °C 29.76in /  1007.7hPa SSE 1.0mph /  1.6km/h 10.0mph /  16.1km/h 61% 0.00in /  0mm
04:29 55.9 °F /  13.3 °C 43.5 °F /  6.4 °C 29.76in /  1007.7hPa Calm   8.0mph /  12.9km/h 63% 0.00in /  0mm
04:34 55.6 °F /  13.1 °C 43.2 °F /  6.2 °C 29.76in /  1007.7hPa South 3.0mph /  4.8km/h 10.0mph /  16.1km/h 63% 0.00in /  0mm
04:39 55.4 °F /  13 °C 43.0 °F /  6.1 °C 29.77in /  1008hPa South 1.0mph /  1.6km/h 10.0mph /  16.1km/h 63% 0.00in /  0mm
04:44 55.4 °F /  13 °C 42.6 °F /  5.9 °C 29.77in /  1008hPa South 1.0mph /  1.6km/h 7.0mph /  11.3km/h 62% 0.00in /  0mm
04:49 55.7 °F /  13.2 °C 42.0 °F /  5.6 °C 29.76in /  1007.7hPa SSW 1.0mph /  1.6km/h 14.0mph /  22.5km/h 60% 0.00in /  0mm
04:54 55.9 °F /  13.3 °C 42.2 °F /  5.7 °C 29.77in /  1008hPa South 3.0mph /  4.8km/h 14.0mph /  22.5km/h 60% 0.00in /  0mm
04:59 56.2 °F /  13.4 °C 42.5 °F /  5.8 °C 29.77in /  1008hPa West 1.0mph /  1.6km/h 13.0mph /  20.9km/h 60% 0.00in /  0mm
05:04 56.1 °F /  13.4 °C 42.8 °F /  6 °C 29.77in /  1008hPa SSE 3.0mph /  4.8km/h 17.0mph /  27.4km/h 61% 0.00in /  0mm
05:09 55.9 °F /  13.3 °C 43.1 °F /  6.2 °C 29.77in /  1008hPa SSW 2.0mph /  3.2km/h 17.0mph /  27.4km/h 62% 0.00in /  0mm
05:14 55.3 °F /  12.9 °C 44.1 °F /  6.7 °C 29.77in /  1008hPa SSW 4.0mph /  6.4km/h 18.0mph /  29km/h 66% 0.00in /  0mm
05:19 54.7 °F /  12.6 °C 44.7 °F /  7.1 °C 29.77in /  1008hPa SSW 2.0mph /  3.2km/h 18.0mph /  29km/h 69% 0.02in /  0.5mm
05:24 53.8 °F /  12.1 °C 45.4 °F /  7.4 °C 29.77in /  1008hPa SW 1.0mph /  1.6km/h 10.0mph /  16.1km/h 73% 0.02in /  0.5mm
05:29 53.0 °F /  11.7 °C 45.3 °F /  7.4 °C 29.77in /  1008hPa SSW 1.0mph /  1.6km/h 5.0mph /  8km/h 75% 0.02in /  0.5mm
05:34 52.5 °F /  11.4 °C 45.2 °F /  7.3 °C 29.77in /  1008hPa SSW 4.0mph /  6.4km/h 11.0mph /  17.7km/h 76% 0.03in /  0.8mm
05:39 52.2 °F /  11.2 °C 45.2 °F /  7.3 °C 29.77in /  1008hPa Calm   11.0mph /  17.7km/h 77% 0.03in /  0.8mm
05:44 52.1 °F /  11.2 °C 45.1 °F /  7.3 °C 29.77in /  1008hPa South 1.0mph /  1.6km/h 11.0mph /  17.7km/h 77% 0.04in /  1mm
05:49 51.9 °F /  11.1 °C 45.3 °F /  7.4 °C 29.77in /  1008hPa SSE 1.0mph /  1.6km/h 11.0mph /  17.7km/h 78% 0.04in /  1mm
05:54 51.8 °F /  11 °C 45.2 °F /  7.3 °C 29.77in /  1008hPa SSW 2.0mph /  3.2km/h 11.0mph /  17.7km/h 78% 0.04in /  1mm
05:59 51.7 °F /  10.9 °C 45.1 °F /  7.3 °C 29.76in /  1007.7hPa SSW 2.0mph /  3.2km/h 11.0mph /  17.7km/h 78% 0.04in /  1mm
06:04 51.7 °F /  10.9 °C 45.4 °F /  7.4 °C 29.76in /  1007.7hPa SSW 2.0mph /  3.2km/h 16.0mph /  25.7km/h 79% 0.04in /  1mm
06:09 51.5 °F /  10.8 °C 45.2 °F /  7.3 °C 29.76in /  1007.7hPa SSE 1.0mph /  1.6km/h 16.0mph /  25.7km/h 79% 0.05in /  1.3mm
06:14 51.3 °F /  10.7 °C 45.0 °F /  7.2 °C 29.75in /  1007.3hPa South 2.0mph /  3.2km/h 10.0mph /  16.1km/h 79% 0.05in /  1.3mm
06:19 51.3 °F /  10.7 °C 45.0 °F /  7.2 °C 29.74in /  1007hPa Calm   9.0mph /  14.5km/h 79% 0.05in /  1.3mm
06:24 51.2 °F /  10.7 °C 44.9 °F /  7.2 °C 29.74in /  1007hPa SW 2.0mph /  3.2km/h 7.0mph /  11.3km/h 79% 0.05in /  1.3mm
06:29 51.2 °F /  10.7 °C 44.9 °F /  7.2 °C 29.74in /  1007hPa South 2.0mph /  3.2km/h 11.0mph /  17.7km/h 79% 0.05in /  1.3mm
06:34 51.3 °F /  10.7 °C 45.0 °F /  7.2 °C 29.74in /  1007hPa SW 1.0mph /  1.6km/h 11.0mph /  17.7km/h 79% 0.06in /  1.5mm
06:39 51.2 °F /  10.7 °C 44.9 °F /  7.2 °C 29.75in /  1007.3hPa South 4.0mph /  6.4km/h 13.0mph /  20.9km/h 79% 0.06in /  1.5mm
06:44 51.3 °F /  10.7 °C 44.7 °F /  7.1 °C 29.75in /  1007.3hPa SSW 3.0mph /  4.8km/h 13.0mph /  20.9km/h 78% 0.06in /  1.5mm
06:49 51.4 °F /  10.8 °C 44.4 °F /  6.9 °C 29.75in /  1007.3hPa Calm   12.0mph /  19.3km/h 77% 0.06in /  1.5mm
06:54 51.4 °F /  10.8 °C 44.4 °F /  6.9 °C 29.74in /  1007hPa SSE 4.0mph /  6.4km/h 18.0mph /  29km/h 77% 0.06in /  1.5mm
06:59 51.5 °F /  10.8 °C 44.5 °F /  6.9 °C 29.74in /  1007hPa South 4.0mph /  6.4km/h 18.0mph /  29km/h 77% 0.06in /  1.5mm
07:04 51.6 °F /  10.9 °C 44.3 °F /  6.8 °C 29.74in /  1007hPa South 4.0mph /  6.4km/h 14.0mph /  22.5km/h 76% 0.06in /  1.5mm
07:09 51.8 °F /  11 °C 43.8 °F /  6.6 °C 29.74in /  1007hPa SSW 4.0mph /  6.4km/h 13.0mph /  20.9km/h 74% 0.06in /  1.5mm
07:14 51.9 °F /  11.1 °C 44.2 °F /  6.8 °C 29.75in /  1007.3hPa South 3.0mph /  4.8km/h 13.0mph /  20.9km/h 75% 0.06in /  1.5mm
07:19 52.1 °F /  11.2 °C 44.1 °F /  6.7 °C 29.74in /  1007hPa SSE 5.0mph /  8km/h 17.0mph /  27.4km/h 74% 0.06in /  1.5mm
07:24 52.4 °F /  11.3 °C 44.0 °F /  6.7 °C 29.74in /  1007hPa SSW 5.0mph /  8km/h 22.0mph /  35.4km/h 73% 0.06in /  1.5mm
07:29 52.7 °F /  11.5 °C 44.3 °F /  6.8 °C 29.74in /  1007hPa South 3.0mph /  4.8km/h 22.0mph /  35.4km/h 73% 0.06in /  1.5mm
07:34 52.8 °F /  11.6 °C 44.4 °F /  6.9 °C 29.75in /  1007.3hPa SSW 4.0mph /  6.4km/h 15.0mph /  24.1km/h 73% 0.06in /  1.5mm
07:39 53.0 °F /  11.7 °C 44.6 °F /  7 °C 29.75in /  1007.3hPa South 1.0mph /  1.6km/h 16.0mph /  25.7km/h 73% 0.06in /  1.5mm
07:44 52.9 °F /  11.6 °C 44.5 °F /  6.9 °C 29.75in /  1007.3hPa SW 2.0mph /  3.2km/h 16.0mph /  25.7km/h 73% 0.06in /  1.5mm
07:49 52.8 °F /  11.6 °C 44.7 °F /  7.1 °C 29.75in /  1007.3hPa SSW 2.0mph /  3.2km/h 10.0mph /  16.1km/h 74% 0.06in /  1.5mm
07:54 52.7 °F /  11.5 °C 45.0 °F /  7.2 °C 29.77in /  1008hPa SSW 2.0mph /  3.2km/h 11.0mph /  17.7km/h 75% 0.06in /  1.5mm
07:59 52.7 °F /  11.5 °C 45.4 °F /  7.4 °C 29.76in /  1007.7hPa SSW 1.0mph /  1.6km/h 11.0mph /  17.7km/h 76% 0.06in /  1.5mm
08:04 52.8 °F /  11.6 °C 45.5 °F /  7.5 °C 29.76in /  1007.7hPa South 1.0mph /  1.6km/h 9.0mph /  14.5km/h 76% 0.06in /  1.5mm
08:09 53.1 °F /  11.7 °C 45.4 °F /  7.4 °C 29.76in /  1007.7hPa South 1.0mph /  1.6km/h 9.0mph /  14.5km/h 75% 0.06in /  1.5mm
08:14 53.5 °F /  11.9 °C 45.8 °F /  7.7 °C 29.76in /  1007.7hPa Calm   10.0mph /  16.1km/h 75% 0.06in /  1.5mm
08:19 53.6 °F /  12 °C 45.2 °F /  7.3 °C 29.76in /  1007.7hPa South 6.0mph /  9.7km/h 17.0mph /  27.4km/h 73% 0.06in /  1.5mm
08:24 53.6 °F /  12 °C 45.2 °F /  7.3 °C 29.76in /  1007.7hPa South 4.0mph /  6.4km/h 17.0mph /  27.4km/h 73% 0.06in /  1.5mm
08:29 53.6 °F /  12 °C 45.5 °F /  7.5 °C 29.76in /  1007.7hPa SSW 2.0mph /  3.2km/h 14.0mph /  22.5km/h 74% 0.06in /  1.5mm
08:34 53.4 °F /  11.9 °C 45.7 °F /  7.6 °C 29.76in /  1007.7hPa SW 1.0mph /  1.6km/h 14.0mph /  22.5km/h 75% 0.06in /  1.5mm
08:39 53.2 °F /  11.8 °C 45.8 °F /  7.7 °C 29.77in /  1008hPa SSW 1.0mph /  1.6km/h 9.0mph /  14.5km/h 76% 0.06in /  1.5mm
08:44 53.0 °F /  11.7 °C 46.0 °F /  7.8 °C 29.76in /  1007.7hPa SSE 2.0mph /  3.2km/h 7.0mph /  11.3km/h 77% 0.06in /  1.5mm
08:49 53.0 °F /  11.7 °C 46.0 °F /  7.8 °C 29.76in /  1007.7hPa SSW 1.0mph /  1.6km/h 8.0mph /  12.9km/h 77% 0.06in /  1.5mm
08:54 53.0 °F /  11.7 °C 46.0 °F /  7.8 °C 29.76in /  1007.7hPa South 1.0mph /  1.6km/h 8.0mph /  12.9km/h 77% 0.06in /  1.5mm
08:59 53.0 °F /  11.7 °C 46.3 °F /  7.9 °C 29.76in /  1007.7hPa South 1.0mph /  1.6km/h 7.0mph /  11.3km/h 78% 0.06in /  1.5mm
09:04 53.0 °F /  11.7 °C 46.3 °F /  7.9 °C 29.76in /  1007.7hPa Calm   7.0mph /  11.3km/h 78% 0.06in /  1.5mm
09:09 52.9 °F /  11.6 °C 46.9 °F /  8.3 °C 29.76in /  1007.7hPa Calm   4.0mph /  6.4km/h 80% 0.06in /  1.5mm
09:14 52.9 °F /  11.6 °C 46.9 °F /  8.3 °C 29.76in /  1007.7hPa Calm   4.0mph /  6.4km/h 80% 0.06in /  1.5mm
09:19 52.8 °F /  11.6 °C 46.8 °F /  8.2 °C 29.76in /  1007.7hPa SSW 1.0mph /  1.6km/h 6.0mph /  9.7km/h 80% 0.06in /  1.5mm
09:24 52.7 °F /  11.5 °C 46.7 °F /  8.2 °C 29.75in /  1007.3hPa Calm   6.0mph /  9.7km/h 80% 0.06in /  1.5mm
09:29 52.8 °F /  11.6 °C 46.5 °F /  8.1 °C 29.75in /  1007.3hPa South 2.0mph /  3.2km/h 9.0mph /  14.5km/h 79% 0.06in /  1.5mm
09:34 53.0 °F /  11.7 °C 46.3 °F /  7.9 °C 29.75in /  1007.3hPa SSW 1.0mph /  1.6km/h 9.0mph /  14.5km/h 78% 0.06in /  1.5mm
09:39 53.2 °F /  11.8 °C 46.9 °F /  8.3 °C 29.75in /  1007.3hPa Calm   8.0mph /  12.9km/h 79% 0.06in /  1.5mm
09:44 53.2 °F /  11.8 °C 46.9 °F /  8.3 °C 29.75in /  1007.3hPa SW 2.0mph /  3.2km/h 5.0mph /  8km/h 79% 0.06in /  1.5mm
09:49 53.2 °F /  11.8 °C 46.5 °F /  8.1 °C 29.75in /  1007.3hPa SSE 2.0mph /  3.2km/h 6.0mph /  9.7km/h 78% 0.06in /  1.5mm
09:54 53.3 °F /  11.8 °C 47.0 °F /  8.3 °C 29.75in /  1007.3hPa Calm   6.0mph /  9.7km/h 79% 0.06in /  1.5mm
09:59 53.4 °F /  11.9 °C 47.1 °F /  8.4 °C 29.75in /  1007.3hPa Calm   6.0mph /  9.7km/h 79% 0.06in /  1.5mm
10:04 53.6 °F /  12 °C 47.3 °F /  8.5 °C 29.75in /  1007.3hPa Calm   6.0mph /  9.7km/h 79% 0.06in /  1.5mm
10:09 53.8 °F /  12.1 °C 47.4 °F /  8.6 °C 29.74in /  1007hPa Calm   1.0mph /  1.6km/h 79% 0.06in /  1.5mm
10:14 54.1 °F /  12.3 °C 48.1 °F /  8.9 °C 29.74in /  1007hPa Calm   7.0mph /  11.3km/h 80% 0.06in /  1.5mm
10:19 54.2 °F /  12.3 °C 47.8 °F /  8.8 °C 29.74in /  1007hPa SSW 4.0mph /  6.4km/h 11.0mph /  17.7km/h 79% 0.06in /  1.5mm
10:24 54.4 °F /  12.4 °C 48.7 °F /  9.3 °C 29.74in /  1007hPa Calm   11.0mph /  17.7km/h 81% 0.06in /  1.5mm
10:29 54.3 °F /  12.4 °C 48.3 °F /  9.1 °C 29.74in /  1007hPa Calm   6.0mph /  9.7km/h 80% 0.06in /  1.5mm
10:34 54.1 °F /  12.3 °C 48.1 °F /  8.9 °C 29.74in /  1007hPa SSE 4.0mph /  6.4km/h 14.0mph /  22.5km/h 80% 0.06in /  1.5mm
10:39 54.0 °F /  12.2 °C 48.0 °F /  8.9 °C 29.74in /  1007hPa SSW 1.0mph /  1.6km/h 14.0mph /  22.5km/h 80% 0.06in /  1.5mm
10:44 54.0 °F /  12.2 °C 48.0 °F /  8.9 °C 29.74in /  1007hPa SSE 1.0mph /  1.6km/h 11.0mph /  17.7km/h 80% 0.06in /  1.5mm
10:49 54.1 °F /  12.3 °C 48.1 °F /  8.9 °C 29.74in /  1007hPa SSE 4.0mph /  6.4km/h 12.0mph /  19.3km/h 80% 0.06in /  1.5mm
10:54 54.3 °F /  12.4 °C 47.9 °F /  8.8 °C 29.74in /  1007hPa SE 4.0mph /  6.4km/h 14.0mph /  22.5km/h 79% 0.06in /  1.5mm
10:59 54.5 °F /  12.5 °C 47.8 °F /  8.8 °C 29.74in /  1007hPa SSW 2.0mph /  3.2km/h 17.0mph /  27.4km/h 78% 0.06in /  1.5mm
11:04 54.8 °F /  12.7 °C 48.1 °F /  8.9 °C 29.74in /  1007hPa South 4.0mph /  6.4km/h 17.0mph /  27.4km/h 78% 0.06in /  1.5mm
11:09 55.0 °F /  12.8 °C 47.9 °F /  8.8 °C 29.74in /  1007hPa South 6.0mph /  9.7km/h 14.0mph /  22.5km/h 77% 0.06in /  1.5mm
11:14 55.3 °F /  12.9 °C 48.2 °F /  9 °C 29.74in /  1007hPa SSW 1.0mph /  1.6km/h 14.0mph /  22.5km/h 77% 0.06in /  1.5mm
11:19 55.5 °F /  13.1 °C 48.4 °F /  9.1 °C 29.74in /  1007hPa Calm   14.0mph /  22.5km/h 77% 0.06in /  1.5mm
11:24 55.7 °F /  13.2 °C 48.6 °F /  9.2 °C 29.74in /  1007hPa SW 5.0mph /  8km/h 14.0mph /  22.5km/h 77% 0.06in /  1.5mm
11:29 55.7 °F /  13.2 °C 48.6 °F /  9.2 °C 29.74in /  1007hPa SSW 1.0mph /  1.6km/h 13.0mph /  20.9km/h 77% 0.06in /  1.5mm
11:34 55.6 °F /  13.1 °C 48.2 °F /  9 °C 29.75in /  1007.3hPa South 1.0mph /  1.6km/h 11.0mph /  17.7km/h 76% 0.06in /  1.5mm
11:39 55.6 °F /  13.1 °C 47.8 °F /  8.8 °C 29.74in /  1007hPa SW 1.0mph /  1.6km/h 15.0mph /  24.1km/h 75% 0.06in /  1.5mm
11:44 55.6 °F /  13.1 °C 48.2 °F /  9 °C 29.74in /  1007hPa SSW 1.0mph /  1.6km/h 15.0mph /  24.1km/h 76% 0.06in /  1.5mm
11:49 55.5 °F /  13.1 °C 47.7 °F /  8.7 °C 29.74in /  1007hPa SSW 3.0mph /  4.8km/h 10.0mph /  16.1km/h 75% 0.06in /  1.5mm
11:54 55.6 °F /  13.1 °C 48.5 °F /  9.2 °C 29.74in /  1007hPa Calm   10.0mph /  16.1km/h 77% 0.06in /  1.5mm
11:59 55.4 °F /  13 °C 48.0 °F /  8.9 °C 29.74in /  1007hPa SW 5.0mph /  8km/h 13.0mph /  20.9km/h 76% 0.06in /  1.5mm
12:09 54.9 °F /  12.7 °C 48.5 °F /  9.2 °C 29.75in /  1007.3hPa SSW 1.0mph /  1.6km/h 4.0mph /  6.4km/h 79% 0.07in /  1.8mm
12:14 54.6 °F /  12.6 °C 48.9 °F /  9.4 °C 29.75in /  1007.3hPa Calm   7.0mph /  11.3km/h 81% 0.08in /  2mm
12:19 54.5 °F /  12.5 °C 49.1 °F /  9.5 °C 29.74in /  1007hPa South 1.0mph /  1.6km/h 7.0mph /  11.3km/h 82% 0.08in /  2mm
12:24 54.4 °F /  12.4 °C 49.3 °F /  9.6 °C 29.75in /  1007.3hPa SSW 1.0mph /  1.6km/h 5.0mph /  8km/h 83% 0.08in /  2mm
12:29 54.2 °F /  12.3 °C 48.8 °F /  9.3 °C 29.75in /  1007.3hPa SSW 1.0mph /  1.6km/h 7.0mph /  11.3km/h 82% 0.08in /  2mm
12:34 54.2 °F /  12.3 °C 49.2 °F /  9.6 °C 29.75in /  1007.3hPa SE 2.0mph /  3.2km/h 9.0mph /  14.5km/h 83% 0.08in /  2mm
12:39 54.3 °F /  12.4 °C 49.6 °F /  9.8 °C 29.74in /  1007hPa Calm   9.0mph /  14.5km/h 84% 0.08in /  2mm
12:44 54.2 °F /  12.3 °C 49.5 °F /  9.7 °C 29.74in /  1007hPa Calm   5.0mph /  8km/h 84% 0.08in /  2mm
12:49 54.2 °F /  12.3 °C 49.5 °F /  9.7 °C 29.74in /  1007hPa SSW 1.0mph /  1.6km/h 5.0mph /  8km/h 84% 0.10in /  2.5mm
12:54 54.3 °F /  12.4 °C 49.9 °F /  9.9 °C 29.74in /  1007hPa Calm   5.0mph /  8km/h 85% 0.10in /  2.5mm
12:59 54.1 °F /  12.3 °C 49.7 °F /  9.8 °C 29.74in /  1007hPa Calm   8.0mph /  12.9km/h 85% 0.12in /  3mm
13:04 53.9 °F /  12.2 °C 49.5 °F /  9.7 °C 29.74in /  1007hPa SW 1.0mph /  1.6km/h 8.0mph /  12.9km/h 85% 0.14in /  3.6mm
13:09 53.8 °F /  12.1 °C 49.7 °F /  9.8 °C 29.74in /  1007hPa Calm   6.0mph /  9.7km/h 86% 0.16in /  4.1mm
13:14 53.8 °F /  12.1 °C 49.7 °F /  9.8 °C 29.74in /  1007hPa Calm   5.0mph /  8km/h 86% 0.18in /  4.6mm
13:20 53.8 °F /  12.1 °C 50.0 °F /  10 °C 29.74in /  1007hPa SSW 1.0mph /  1.6km/h 5.0mph /  8km/h 87% 0.20in /  5.1mm
13:29 53.8 °F /  12.1 °C 50.0 °F /  10 °C 29.74in /  1007hPa SSE 1.0mph /  1.6km/h 10.0mph /  16.1km/h 87% 0.21in /  5.3mm
13:34 53.9 °F /  12.2 °C 50.1 °F /  10.1 °C 29.74in /  1007hPa Calm   7.0mph /  11.3km/h 87% 0.21in /  5.3mm
13:39 54.0 °F /  12.2 °C 50.5 °F /  10.3 °C 29.74in /  1007hPa Calm   6.0mph /  9.7km/h 88% 0.21in /  5.3mm
13:45 54.1 °F /  12.3 °C 50.3 °F /  10.2 °C 29.73in /  1006.7hPa Calm   6.0mph /  9.7km/h 87% 0.21in /  5.3mm
13:54 54.2 °F /  12.3 °C 50.4 °F /  10.2 °C 29.74in /  1007hPa SW 2.0mph /  3.2km/h 8.0mph /  12.9km/h 87% 0.21in /  5.3mm
13:59 54.4 °F /  12.4 °C 50.6 °F /  10.3 °C 29.74in /  1007hPa SW 1.0mph /  1.6km/h 8.0mph /  12.9km/h 87% 0.21in /  5.3mm
14:04 54.4 °F /  12.4 °C 50.6 °F /  10.3 °C 29.73in /  1006.7hPa SSE 1.0mph /  1.6km/h 5.0mph /  8km/h 87% 0.21in /  5.3mm
14:09 54.1 °F /  12.3 °C 50.0 °F /  10 °C 29.73in /  1006.7hPa SW 1.0mph /  1.6km/h 7.0mph /  11.3km/h 86% 0.21in /  5.3mm
14:14 54.4 °F /  12.4 °C 50.3 °F /  10.2 °C 29.73in /  1006.7hPa Calm   7.0mph /  11.3km/h 86% 0.21in /  5.3mm
14:19 54.6 °F /  12.6 °C 50.8 °F /  10.4 °C 29.73in /  1006.7hPa SSW 1.0mph /  1.6km/h 8.0mph /  12.9km/h 87% 0.21in /  5.3mm
14:24 55.1 °F /  12.8 °C 51.3 °F /  10.7 °C 29.73in /  1006.7hPa South 1.0mph /  1.6km/h 8.0mph /  12.9km/h 87% 0.21in /  5.3mm
14:29 55.2 °F /  12.9 °C 51.1 °F /  10.6 °C 29.73in /  1006.7hPa SW 1.0mph /  1.6km/h 7.0mph /  11.3km/h 86% 0.21in /  5.3mm
14:34 55.3 °F /  12.9 °C 51.2 °F /  10.7 °C 29.73in /  1006.7hPa Calm   7.0mph /  11.3km/h 86% 0.21in /  5.3mm
14:39 55.3 °F /  12.9 °C 51.2 °F /  10.7 °C 29.73in /  1006.7hPa Calm   7.0mph /  11.3km/h 86% 0.21in /  5.3mm
14:44 55.4 °F /  13 °C 51.3 °F /  10.7 °C 29.73in /  1006.7hPa SSW 1.0mph /  1.6km/h 7.0mph /  11.3km/h 86% 0.21in /  5.3mm
14:50 55.1 °F /  12.8 °C 51.0 °F /  10.6 °C 29.73in /  1006.7hPa SSW 3.0mph /  4.8km/h 8.0mph /  12.9km/h 86% 0.21in /  5.3mm
14:59 54.9 °F /  12.7 °C 50.8 °F /  10.4 °C 29.74in /  1007hPa Calm   7.0mph /  11.3km/h 86% 0.21in /  5.3mm
15:04 54.4 °F /  12.4 °C 50.0 °F /  10 °C 29.74in /  1007hPa South 1.0mph /  1.6km/h 9.0mph /  14.5km/h 85% 0.22in /  5.6mm
15:09 54.2 °F /  12.3 °C 50.1 °F /  10.1 °C 29.74in /  1007hPa SSW 2.0mph /  3.2km/h 9.0mph /  14.5km/h 86% 0.24in /  6.1mm
15:15 54.0 °F /  12.2 °C 50.2 °F /  10.1 °C 29.74in /  1007hPa SSW 3.0mph /  4.8km/h 8.0mph /  12.9km/h 87% 0.24in /  6.1mm
15:24 53.9 °F /  12.2 °C 50.1 °F /  10.1 °C 29.74in /  1007hPa SSW 1.0mph /  1.6km/h 8.0mph /  12.9km/h 87% 0.26in /  6.6mm
15:29 53.9 °F /  12.2 °C 50.4 °F /  10.2 °C 29.74in /  1007hPa SSW 2.0mph /  3.2km/h 8.0mph /  12.9km/h 88% 0.26in /  6.6mm
15:34 53.8 °F /  12.1 °C 50.3 °F /  10.2 °C 29.73in /  1006.7hPa SW 1.0mph /  1.6km/h 7.0mph /  11.3km/h 88% 0.27in /  6.9mm
15:39 53.8 °F /  12.1 °C 50.3 °F /  10.2 °C 29.73in /  1006.7hPa Calm   6.0mph /  9.7km/h 88% 0.27in /  6.9mm
15:44 54.2 °F /  12.3 °C 51.0 °F /  10.6 °C 29.73in /  1006.7hPa SSE 1.0mph /  1.6km/h 6.0mph /  9.7km/h 89% 0.27in /  6.9mm
15:49 54.4 °F /  12.4 °C 51.5 °F /  10.8 °C 29.73in /  1006.7hPa Calm   6.0mph /  9.7km/h 90% 0.27in /  6.9mm
15:54 54.6 °F /  12.6 °C 51.7 °F /  10.9 °C 29.73in /  1006.7hPa Calm   1.0mph /  1.6km/h 90% 0.27in /  6.9mm
16:00 54.4 °F /  12.4 °C 51.2 °F /  10.7 °C 29.73in /  1006.7hPa Calm   6.0mph /  9.7km/h 89% 0.27in /  6.9mm
16:09 54.1 °F /  12.3 °C 50.9 °F /  10.5 °C 29.73in /  1006.7hPa Calm   1.0mph /  1.6km/h 89% 0.27in /  6.9mm
16:14 54.2 °F /  12.3 °C 51.3 °F /  10.7 °C 29.72in /  1006.3hPa Calm   2.0mph /  3.2km/h 90% 0.27in /  6.9mm
16:19 54.5 °F /  12.5 °C 51.6 °F /  10.9 °C 29.73in /  1006.7hPa SSW 1.0mph /  1.6km/h 3.0mph /  4.8km/h 90% 0.27in /  6.9mm
16:24 54.6 °F /  12.6 °C 51.7 °F /  10.9 °C 29.72in /  1006.3hPa Calm   3.0mph /  4.8km/h 90% 0.28in /  7.1mm
16:29 54.8 °F /  12.7 °C 51.9 °F /  11.1 °C 29.73in /  1006.7hPa Calm   3.0mph /  4.8km/h 90% 0.28in /  7.1mm
16:34 54.7 °F /  12.6 °C 51.8 °F /  11 °C 29.73in /  1006.7hPa Calm   3.0mph /  4.8km/h 90% 0.28in /  7.1mm
16:39 54.6 °F /  12.6 °C 51.4 °F /  10.8 °C 29.73in /  1006.7hPa Calm     89% 0.28in /  7.1mm
16:44 54.5 °F /  12.5 °C 51.3 °F /  10.7 °C 29.73in /  1006.7hPa Calm     89% 0.28in /  7.1mm
16:49 54.5 °F /  12.5 °C 51.6 °F /  10.9 °C 29.73in /  1006.7hPa Calm     90% 0.28in /  7.1mm
16:55 54.6 °F /  12.6 °C 51.7 °F /  10.9 °C 29.73in /  1006.7hPa Calm     90% 0.28in /  7.1mm
17:04 54.8 °F /  12.7 °C 51.9 °F /  11.1 °C 29.72in /  1006.3hPa Calm     90% 0.28in /  7.1mm
17:09 54.8 °F /  12.7 °C 51.9 °F /  11.1 °C 29.72in /  1006.3hPa Calm     90% 0.28in /  7.1mm
17:14 54.9 °F /  12.7 °C 52.0 °F /  11.1 °C 29.72in /  1006.3hPa Calm     90% 0.28in /  7.1mm
17:20 54.9 °F /  12.7 °C 52.0 °F /  11.1 °C 29.72in /  1006.3hPa Calm     90% 0.28in /  7.1mm
17:29 55.0 °F /  12.8 °C 52.1 °F /  11.2 °C 29.72in /  1006.3hPa Calm     90% 0.28in /  7.1mm
17:39 54.9 °F /  12.7 °C 51.7 °F /  10.9 °C 29.72in /  1006.3hPa Calm   3.0mph /  4.8km/h 89% 0.28in /  7.1mm
17:44 54.8 °F /  12.7 °C 51.6 °F /  10.9 °C 29.72in /  1006.3hPa Calm   3.0mph /  4.8km/h 89% 0.28in /  7.1mm
17:49 54.8 °F /  12.7 °C 51.6 °F /  10.9 °C 29.73in /  1006.7hPa Calm   4.0mph /  6.4km/h 89% 0.28in /  7.1mm
17:54 54.8 °F /  12.7 °C 51.6 °F /  10.9 °C 29.72in /  1006.3hPa Calm   4.0mph /  6.4km/h 89% 0.28in /  7.1mm
18:00 54.9 °F /  12.7 °C 51.7 °F /  10.9 °C 29.72in /  1006.3hPa Calm   4.0mph /  6.4km/h 89% 0.29in /  7.4mm
18:09 55.0 °F /  12.8 °C 51.8 °F /  11 °C 29.72in /  1006.3hPa Calm   5.0mph /  8km/h 89% 0.29in /  7.4mm
18:14 55.0 °F /  12.8 °C 51.8 °F /  11 °C 29.72in /  1006.3hPa South 1.0mph /  1.6km/h 5.0mph /  8km/h 89% 0.29in /  7.4mm
18:19 55.0 °F /  12.8 °C 51.8 °F /  11 °C 29.72in /  1006.3hPa Calm   5.0mph /  8km/h 89% 0.29in /  7.4mm
18:24 54.9 °F /  12.7 °C 51.7 °F /  10.9 °C 29.72in /  1006.3hPa Calm   3.0mph /  4.8km/h 89% 0.30in /  7.6mm
18:29 54.9 °F /  12.7 °C 51.7 °F /  10.9 °C 29.72in /  1006.3hPa South 1.0mph /  1.6km/h 2.0mph /  3.2km/h 89% 0.30in /  7.6mm
18:34 54.8 °F /  12.7 °C 51.6 °F /  10.9 °C 29.73in /  1006.7hPa Calm   2.0mph /  3.2km/h 89% 0.30in /  7.6mm
18:39 54.9 °F /  12.7 °C 51.7 °F /  10.9 °C 29.73in /  1006.7hPa Calm     89% 0.30in /  7.6mm
18:44 54.9 °F /  12.7 °C 52.0 °F /  11.1 °C 29.73in /  1006.7hPa Calm     90% 0.30in /  7.6mm
18:49 54.8 °F /  12.7 °C 51.6 °F /  10.9 °C 29.73in /  1006.7hPa Calm     89% 0.30in /  7.6mm
18:54 54.7 °F /  12.6 °C 51.5 °F /  10.8 °C 29.73in /  1006.7hPa Calm     89% 0.30in /  7.6mm
18:59 54.6 °F /  12.6 °C 51.7 °F /  10.9 °C 29.73in /  1006.7hPa Calm     90% 0.30in /  7.6mm
19:04 54.6 °F /  12.6 °C 51.7 °F /  10.9 °C 29.73in /  1006.7hPa Calm     90% 0.31in /  7.9mm
19:09 54.5 °F /  12.5 °C 51.6 °F /  10.9 °C 29.73in /  1006.7hPa Calm     90% 0.32in /  8.1mm
19:14 54.4 °F /  12.4 °C 51.5 °F /  10.8 °C 29.73in /  1006.7hPa Calm     90% 0.32in /  8.1mm
19:19 54.4 °F /  12.4 °C 51.5 °F /  10.8 °C 29.73in /  1006.7hPa Calm     90% 0.33in /  8.4mm
19:24 54.4 °F /  12.4 °C 51.5 °F /  10.8 °C 29.73in /  1006.7hPa Calm     90% 0.33in /  8.4mm
19:29 54.3 °F /  12.4 °C 51.4 °F /  10.8 °C 29.73in /  1006.7hPa Calm     90% 0.34in /  8.6mm
19:34 54.2 °F /  12.3 °C 51.3 °F /  10.7 °C 29.73in /  1006.7hPa Calm     90% 0.34in /  8.6mm
19:39 54.1 °F /  12.3 °C 51.2 °F /  10.7 °C 29.73in /  1006.7hPa Calm   2.0mph /  3.2km/h 90% 0.34in /  8.6mm
19:44 54.0 °F /  12.2 °C 51.1 °F /  10.6 °C 29.73in /  1006.7hPa Calm   2.0mph /  3.2km/h 90% 0.34in /  8.6mm
19:49 53.9 °F /  12.2 °C 51.0 °F /  10.6 °C 29.73in /  1006.7hPa Calm     90% 0.34in /  8.6mm
19:54 53.9 °F /  12.2 °C 51.3 °F /  10.7 °C 29.73in /  1006.7hPa Calm     91% 0.34in /  8.6mm
19:59 53.8 °F /  12.1 °C 51.2 °F /  10.7 °C 29.72in /  1006.3hPa Calm     91% 0.34in /  8.6mm
20:04 53.7 °F /  12.1 °C 51.1 °F /  10.6 °C 29.73in /  1006.7hPa Calm     91% 0.35in /  8.9mm
20:09 53.7 °F /  12.1 °C 51.1 °F /  10.6 °C 29.72in /  1006.3hPa Calm     91% 0.35in /  8.9mm
20:14 53.6 °F /  12 °C 51.0 °F /  10.6 °C 29.72in /  1006.3hPa Calm     91% 0.35in /  8.9mm
20:19 53.6 °F /  12 °C 51.0 °F /  10.6 °C 29.72in /  1006.3hPa Calm   1.0mph /  1.6km/h 91% 0.36in /  9.1mm
20:24 53.5 °F /  11.9 °C 51.2 °F /  10.7 °C 29.72in /  1006.3hPa Calm   1.0mph /  1.6km/h 92% 0.36in /  9.1mm
20:29 53.5 °F /  11.9 °C 51.2 °F /  10.7 °C 29.72in /  1006.3hPa Calm   1.0mph /  1.6km/h 92% 0.36in /  9.1mm
20:34 53.4 °F /  11.9 °C 51.1 °F /  10.6 °C 29.72in /  1006.3hPa Calm     92% 0.36in /  9.1mm
20:39 53.4 °F /  11.9 °C 51.1 °F /  10.6 °C 29.72in /  1006.3hPa Calm     92% 0.36in /  9.1mm
20:44 53.3 °F /  11.8 °C 51.0 °F /  10.6 °C 29.72in /  1006.3hPa Calm   1.0mph /  1.6km/h 92% 0.37in /  9.4mm
20:49 53.2 °F /  11.8 °C 50.9 °F /  10.5 °C 29.72in /  1006.3hPa Calm   1.0mph /  1.6km/h 92% 0.38in /  9.7mm
20:54 53.2 °F /  11.8 °C 50.9 °F /  10.5 °C 29.73in /  1006.7hPa Calm     92% 0.38in /  9.7mm
20:59 53.2 °F /  11.8 °C 51.2 °F /  10.7 °C 29.73in /  1006.7hPa Calm     93% 0.38in /  9.7mm
21:04 53.2 °F /  11.8 °C 51.2 °F /  10.7 °C 29.73in /  1006.7hPa Calm   2.0mph /  3.2km/h 93% 0.38in /  9.7mm
21:09 53.2 °F /  11.8 °C 51.2 °F /  10.7 °C 29.73in /  1006.7hPa Calm   2.0mph /  3.2km/h 93% 0.38in /  9.7mm
21:14 53.1 °F /  11.7 °C 51.1 °F /  10.6 °C 29.73in /  1006.7hPa Calm   3.0mph /  4.8km/h 93% 0.38in /  9.7mm
21:19 53.0 °F /  11.7 °C 51.0 °F /  10.6 °C 29.73in /  1006.7hPa Calm   3.0mph /  4.8km/h 93% 0.39in /  9.9mm
21:24 53.0 °F /  11.7 °C 51.0 °F /  10.6 °C 29.73in /  1006.7hPa Calm   2.0mph /  3.2km/h 93% 0.39in /  9.9mm
21:29 53.0 °F /  11.7 °C 51.0 °F /  10.6 °C 29.74in /  1007hPa Calm   1.0mph /  1.6km/h 93% 0.39in /  9.9mm
21:34 52.9 °F /  11.6 °C 50.9 °F /  10.5 °C 29.74in /  1007hPa Calm     93% 0.39in /  9.9mm
21:39 52.9 °F /  11.6 °C 50.9 °F /  10.5 °C 29.73in /  1006.7hPa Calm     93% 0.40in /  10.2mm
21:44 52.9 °F /  11.6 °C 51.2 °F /  10.7 °C 29.74in /  1007hPa Calm   2.0mph /  3.2km/h 94% 0.40in /  10.2mm
21:49 52.9 °F /  11.6 °C 51.2 °F /  10.7 °C 29.74in /  1007hPa Calm   2.0mph /  3.2km/h 94% 0.40in /  10.2mm
21:54 52.9 °F /  11.6 °C 51.2 °F /  10.7 °C 29.73in /  1006.7hPa Calm     94% 0.40in /  10.2mm
21:59 52.9 °F /  11.6 °C 51.2 °F /  10.7 °C 29.73in /  1006.7hPa Calm     94% 0.40in /  10.2mm
22:04 52.9 °F /  11.6 °C 51.2 °F /  10.7 °C 29.74in /  1007hPa Calm     94% 0.40in /  10.2mm
22:09 52.9 °F /  11.6 °C 51.2 °F /  10.7 °C 29.74in /  1007hPa Calm     94% 0.40in /  10.2mm
22:14 52.9 °F /  11.6 °C 51.2 °F /  10.7 °C 29.74in /  1007hPa Calm     94% 0.41in /  10.4mm
22:19 52.9 °F /  11.6 °C 51.2 °F /  10.7 °C 29.74in /  1007hPa Calm     94% 0.41in /  10.4mm
22:25 52.9 °F /  11.6 °C 51.2 °F /  10.7 °C 29.74in /  1007hPa Calm     94% 0.41in /  10.4mm
22:34 52.9 °F /  11.6 °C 51.2 °F /  10.7 °C 29.73in /  1006.7hPa Calm     94% 0.42in /  10.7mm
22:40 52.9 °F /  11.6 °C 51.2 °F /  10.7 °C 29.73in /  1006.7hPa Calm     94% 0.42in /  10.7mm
22:49 52.9 °F /  11.6 °C 51.2 °F /  10.7 °C 29.73in /  1006.7hPa Calm     94% 0.42in /  10.7mm
22:54 52.8 °F /  11.6 °C 51.1 °F /  10.6 °C 29.73in /  1006.7hPa Calm     94% 0.42in /  10.7mm
23:00 52.8 °F /  11.6 °C 51.1 °F /  10.6 °C 29.73in /  1006.7hPa Calm   1.0mph /  1.6km/h 94% 0.42in /  10.7mm
23:10 52.7 °F /  11.5 °C 51.3 °F /  10.7 °C 29.72in /  1006.3hPa Calm   2.0mph /  3.2km/h 95% 0.43in /  10.9mm
23:20 52.6 °F /  11.4 °C 51.2 °F /  10.7 °C 29.73in /  1006.7hPa Calm   1.0mph /  1.6km/h 95% 0.43in /  10.9mm
23:29 52.6 °F /  11.4 °C 51.2 °F /  10.7 °C 29.72in /  1006.3hPa Calm     95% 0.44in /  11.2mm
23:34 52.6 °F /  11.4 °C 51.2 °F /  10.7 °C 29.72in /  1006.3hPa Calm     95% 0.45in /  11.4mm
23:39 52.6 °F /  11.4 °C 51.2 °F /  10.7 °C 29.72in /  1006.3hPa Calm     95% 0.46in /  11.7mm
23:44 52.6 °F /  11.4 °C 51.2 °F /  10.7 °C 29.72in /  1006.3hPa Calm     95% 0.46in /  11.7mm
23:49 52.6 °F /  11.4 °C 51.2 °F /  10.7 °C 29.72in /  1006.3hPa Calm     95% 0.48in /  12.2mm
23:54 52.6 °F /  11.4 °C 51.2 °F /  10.7 °C 29.72in /  1006.3hPa Calm     95% 0.48in /  12.2mm
23:59 52.6 °F /  11.4 °C 51.2 °F /  10.7 °C 29.72in /  1006.3hPa Calm     95% 0.48in /  12.2mm
Westford Weather
Compliments of Weather Underground

 
 
Current Radar Loop:

Copyright © WestfordWeather.net 2007-2014. All rights reserved.